^^

Meteo Aereoporti Centro-Italia

 

 
LIRZ - Perugia S.Egidio (208 m.)
Dati ricevuti: 20/10/2017 20:50
Sereno
Sereno
 Vento da NNE
Vento: NNE 11 km/h
TEMPERATURA: 15°C
P.to di Rugiada: 8°C
Umidità: 63%
Pressione: 1020 hPa
Condizioni generali: Sereno
Visibilità: oltre 10 km
2017/10/20 18:50 LIRZ 201850Z 02006KT CAVOK 15/08 Q1020
 
LIPY - Ancona Falconara (12 m.)
Dati ricevuti: 20/10/2017 20:50
Foschia, Poco nuvoloso
Foschia, Poco nuvoloso
 Vento da direzione variabile
Vento: direzione variabile 4 km/h
TEMPERATURA: 13°C
P.to di Rugiada: 12°C
Umidità: 94%
Pressione: 1021 hPa
Condizioni generali: Foschia
Nuvole: Poco nuvoloso
Visibilità: 5 km
2017/10/20 18:50 LIPY 201850Z VRB02KT 5000 BR NSC 13/12 Q1021
 
LIPR - Rimini Miramare (12 m.)
Dati ricevuti: 20/10/2017 21:45
Foschia, Molto Nuvoloso
Foschia, Molto Nuvoloso
 Vento da ESE
Vento: ESE 7 km/h
TEMPERATURA: 18°C
P.to di Rugiada: 15°C
Umidità: 83%
Pressione: 1020 hPa
Condizioni generali: Foschia
Nuvole: Molto nuvoloso
Visibilità: 3 km
Dettagli Nuvole: Molto nuvoloso 518 m
2017/10/20 19:45 LIPR 201945Z 11004KT 3000 BR BKN017 18/15 Q1020
 
LIRF - Roma Fiumicino (2 m.)
Dati ricevuti: 20/10/2017 21:50
Sereno
Sereno
 Vento da ENE
Vento: ENE 6 km/h
TEMPERATURA: 16°C
P.to di Rugiada: 15°C
Umidità: 94%
Pressione: 1021 hPa
Condizioni generali: Sereno
Visibilità: oltre 10 km
2017/10/20 19:50 LIRF 201950Z 06003KT CAVOK 16/15 Q1021 NOSIG
 
LIRA - Roma Ciampino (129 m.)
Dati ricevuti: 20/10/2017 21:50
Sereno
Sereno
 Vento da E
Vento: E 9 km/h
TEMPERATURA: 15°C
P.to di Rugiada: 13°C
Umidità: 88%
Pressione: 1021 hPa
Condizioni generali: Sereno
Visibilità: oltre 10 km
2017/10/20 19:50 LIRA 201950Z 10005KT CAVOK 15/13 Q1021
 
LIRU - Roma Urbe (17 m.)
Dati ricevuti: 20/10/2017 18:50
Dati non aggiornati
Sereno
Sereno
 Vento da direzione variabile
Vento: direzione variabile 4 km/h
TEMPERATURA: 19°C
P.to di Rugiada: 13°C
Umidità: 68%
Pressione: 1019 hPa
Condizioni generali: Sereno
Visibilità: oltre 10 km
2017/10/20 16:50 LIRU 201650Z VRB02KT CAVOK 19/13 Q1019
 
LIVF - Frontone (570 m.)
Dati ricevuti: 20/10/2017 20:55
Poco nuvoloso
Poco nuvoloso
 Vento da W
Vento: W 6 km/h
TEMPERATURA: 13°C
P.to di Rugiada: 12°C
Umidità: 94%
Pressione: 1020 hPa
Nuvole: Poco nuvoloso
Visibilità: 8 km
2017/10/20 18:55 LIVF 201855Z 27003KT 8000 NSC 13/12 Q1020 RMK SKC MON LIB VAL FOSCHIA VIS MIN 8000
 
LIRQ - Firenze Peretola (40 m.)
Dati ricevuti: 20/10/2017 21:50
Sereno
Sereno
 Vento da ENE
Vento: ENE 7 km/h
TEMPERATURA: 12°C
P.to di Rugiada: 8°C
Umidità: 77%
Pressione: 1021 hPa
Condizioni generali: Sereno
Visibilità: oltre 10 km
2017/10/20 19:50 LIRQ 201950Z 07004KT CAVOK 12/08 Q1021
 
LIBP - Pescara (10 m.)
Dati ricevuti: 20/10/2017 20:50
Poco nuvoloso
Poco nuvoloso
 Vento da SSW
Vento: SSW 4 km/h
TEMPERATURA: 15°C
P.to di Rugiada: 13°C
Umidità: 88%
Pressione: 1021 hPa
Nuvole: Poco nuvoloso
Visibilità: 9 km
2017/10/20 18:50 LIBP 201850Z 21002KT 9000 NSC 15/13 Q1021
 
LIRV - Viterbo (300 m.)
Dati ricevuti: 20/10/2017 18:55
Dati non aggiornati
Sereno
Sereno
 Vento da SW
Vento: SW 11 km/h
TEMPERATURA: 15°C
P.to di Rugiada: 11°C
Umidità: 77%
Pressione: 1020 hPa
Condizioni generali: Sereno
Visibilità: oltre 10 km
2017/10/20 16:55 LIRV 201655Z 22006KT CAVOK 15/11 Q1020
 
LIQN - Rieti (389 m.)
Dati ricevuti: 20/10/2017 19:50
Dati non aggiornati
Sereno
Sereno
 Vento da direzione variabile
Vento: direzione variabile 6 km/h
TEMPERATURA: 14°C
P.to di Rugiada: 11°C
Umidità: 82%
Pressione: 1020 hPa
Condizioni generali: Sereno
Visibilità: oltre 10 km
2017/10/20 17:50 LIQN 201750Z VRB03KT CAVOK 14/11 Q1020
 
LIRG - Guidonia -RM- (88 m.)
Dati ricevuti: 20/10/2017 19:55
Dati non aggiornati
Sereno
Sereno
 Vento da NNE
Vento: NNE 7 km/h
TEMPERATURA: 17°C
P.to di Rugiada: 13°C
Umidità: 77%
Pressione: 1020 hPa
Condizioni generali: Sereno
Visibilità: oltre 10 km
2017/10/20 17:55 LIRG 201755Z 03004KT CAVOK 17/13 Q1020
 
LIRK - Terminillo -RI-(1874 m.)
Dati ricevuti: 20/10/2017 20:55

 Vento da SSW
Vento: SSW 9 km/h
2017/10/20 18:55 LIRK 201855Z AUTO 21005KT 180V250 //// ///// Q////
 
LIPK - Forlì (27 m.)
Dati ricevuti: 20/10/2017 17:50
Dati non aggiornati
Foschia, Poco nuvoloso
Foschia, Poco nuvoloso
 Vento da direzione variabile
Vento: direzione variabile 4 km/h
TEMPERATURA: 18°C
P.to di Rugiada: 12°C
Umidità: 68%
Pressione: 1020 hPa
Condizioni generali: Foschia
Nuvole: Poco nuvoloso
Visibilità: 3 km
Dettagli Nuvole: Poco nuvoloso 1067 m
2017/10/20 15:50 LIPK 201550Z VRB02KT 3000 BR SCT035 18/12 Q1020
 
LIRS - Grosseto (5 m.)
Dati ricevuti: 20/10/2017 20:55
Poco nuvoloso
Poco nuvoloso
 Vento da E
Vento: E 4 km/h
TEMPERATURA: 17°C
P.to di Rugiada: 15°C
Umidità: 88%
Pressione: 1020 hPa
Nuvole: Poco nuvoloso
Visibilità: 7 km
2017/10/20 18:55 LIRS 201855Z 09002KT 7000 NSC 17/15 Q1020
 
LIRP - Pisa S.Giusto (2 m.)
Dati ricevuti: 20/10/2017 21:45
Qualche nuvola
Qualche nuvola
 Vento da ENE
Vento: ENE 7 km/h
TEMPERATURA: 15°C
P.to di Rugiada: 13°C
Umidità: 88%
Pressione: 1020 hPa
Nuvole: Qualche nuvola
Visibilità: 10 km
Dettagli Nuvole: Qualche nuvola 1219 m
2017/10/20 19:45 LIRP 201945Z 06004KT 9999 FEW040 15/13 Q1020 NOSIG